Time;durP1;ratioP1;P1;durP2;ratioP2;P2;SDS_P1;SDS_P2;PMS_P1;PMS_P2;Temp;Humidity;BMP_temperature;BMP_pressure;BME280_temperature;BME280_humidity;BME280_pressure;Samples;Min_cycle;Max_cycle;Signal;HPM_P1;HPM_P2
2021/01/04 00:05:07;;;;;;;86.42;45.35;;;;;;;5.19;67.35;98770.58;251501;1132;116862;-70
2021/01/04 00:10:12;;;;;;;86.73;47.33;;;;;;;5.10;66.92;98761.30;251765;1134;115167;-70
2021/01/04 00:15:34;;;;;;;;;;;;;;;4.98;66.99;98751.29;252010;1133;114980;-70
2021/01/04 00:20:45;;;;;;;82.13;45.37;;;;;;;4.86;67.63;98749.20;251972;1135;103134;-70
2021/01/04 00:26:02;;;;;;;84.37;47.17;;;;;;;4.79;67.52;98755.64;251748;1132;116995;-69
2021/01/04 00:31:14;;;;;;;85.10;44.98;;;;;;;4.76;67.35;98758.44;251888;1132;114849;-70
2021/01/04 00:36:30;;;;;;;90.63;48.13;;;;;;;4.70;67.21;98767.45;251740;1132;115588;-70
2021/01/04 00:41:44;;;;;;;105.35;53.00;;;;;;;4.67;67.09;98778.12;248697;1132;115553;-71
2021/01/04 00:46:57;;;;;;;110.20;54.77;;;;;;;4.59;67.43;98778.45;249799;1132;115886;-72
2021/01/04 00:52:37;;;;;;;104.80;53.90;;;;;;;4.51;67.04;98768.20;251862;1133;114994;-71
2021/01/04 00:58:11;;;;;;;101.40;50.60;;;;;;;4.41;67.25;98769.52;248990;1132;115726;-71
2021/01/04 01:03:40;;;;;;;102.17;51.10;;;;;;;4.32;67.29;98762.02;251888;1134;114835;-72
2021/01/04 01:08:42;;;;;;;105.00;53.43;;;;;;;4.34;67.55;98760.15;251730;1132;115190;-72
2021/01/04 01:13:56;;;;;;;97.73;51.07;;;;;;;4.24;67.41;98770.20;251188;1134;116211;-69
2021/01/04 01:19:14;;;;;;;;;;;;;;;4.13;66.89;98777.69;251658;1135;115546;-70
2021/01/04 01:24:17;;;;;;;85.30;44.70;;;;;;;3.98;67.37;98781.80;251988;1132;102592;-69
2021/01/04 01:30:04;;;;;;;90.10;47.13;;;;;;;3.85;67.05;98788.46;252115;1133;115044;-69
2021/01/04 01:35:07;;;;;;;96.97;48.77;;;;;;;3.74;67.33;98794.14;251618;1132;115658;-70
2021/01/04 01:40:31;;;;;;;96.97;48.57;;;;;;;3.69;66.94;98792.59;251585;1132;115082;-70
2021/01/04 01:45:43;;;;;;;90.45;48.60;;;;;;;3.65;67.79;98809.42;252040;1132;114948;-70
2021/01/04 01:51:00;;;;;;;98.15;48.92;;;;;;;3.63;67.52;98812.09;251929;1133;115937;-70
2021/01/04 01:56:16;;;;;;;98.17;47.83;;;;;;;3.60;67.50;98809.61;251711;1133;115526;-70
2021/01/04 02:01:26;;;;;;;101.47;51.75;;;;;;;3.56;68.02;98803.56;251939;1134;114704;-70
2021/01/04 02:06:45;;;;;;;96.20;47.57;;;;;;;3.55;68.15;98793.97;251935;1133;114929;-71
2021/01/04 02:12:09;;;;;;;97.60;48.37;;;;;;;3.56;68.14;98792.19;251835;1132;117910;-71
2021/01/04 02:17:18;;;;;;;98.95;48.13;;;;;;;3.56;68.62;98785.15;251250;1134;116601;-70
2021/01/04 02:22:25;;;;;;;101.97;49.83;;;;;;;3.59;68.93;98775.44;251870;1132;114924;-70
2021/01/04 02:27:30;;;;;;;;;;;;;;;3.64;68.13;98773.51;252143;1133;115930;-71
2021/01/04 02:32:32;;;;;;;111.07;49.83;;;;;;;3.69;68.44;98768.91;251860;1137;102573;-69
2021/01/04 02:37:36;;;;;;;101.50;50.07;;;;;;;3.78;68.44;98782.58;248117;1134;115380;-70
2021/01/04 02:42:46;;;;;;;96.15;46.90;;;;;;;3.83;68.51;98785.02;248705;1134;115691;-70
2021/01/04 02:48:06;;;;;;;97.30;47.33;;;;;;;3.84;68.19;98786.75;251957;1133;115706;-70
2021/01/04 02:53:27;;;;;;;94.80;45.83;;;;;;;3.83;68.66;98782.38;252200;1132;116024;-70
2021/01/04 02:58:45;;;;;;;83.57;45.07;;;;;;;3.79;68.01;98780.80;251940;1133;114946;-70
2021/01/04 03:03:48;;;;;;;90.97;44.67;;;;;;;3.71;68.79;98782.88;249765;1135;116030;-69
2021/01/04 03:08:51;;;;;;;91.17;45.93;;;;;;;3.67;68.73;98783.89;249198;1134;115297;-69
2021/01/04 03:14:06;;;;;;;85.47;44.60;;;;;;;3.63;68.55;98782.30;251656;1133;114949;-70
2021/01/04 03:19:22;;;;;;;95.47;47.37;;;;;;;3.57;68.88;98783.41;251904;1133;115151;-71
2021/01/04 03:24:31;;;;;;;98.33;46.10;;;;;;;3.54;68.35;98786.15;250241;1132;116490;-71
2021/01/04 03:29:39;;;;;;;97.77;48.17;;;;;;;3.51;68.82;98794.16;250958;1134;115342;-71
2021/01/04 03:34:41;;;;;;;91.15;45.35;;;;;;;3.47;68.08;98798.67;251919;1135;114677;-72
2021/01/04 03:39:45;;;;;;;86.37;44.60;;;;;;;3.44;68.78;98801.41;251662;1133;115979;-72
2021/01/04 03:44:47;;;;;;;78.87;44.03;;;;;;;3.40;68.52;98802.45;251986;1133;114906;-71
2021/01/04 03:49:50;;;;;;;79.50;42.93;;;;;;;3.32;68.13;98815.00;251993;1134;115398;-72
2021/01/04 03:54:52;;;;;;;77.63;41.40;;;;;;;3.26;68.16;98815.22;251658;1135;114845;-72
2021/01/04 03:59:55;;;;;;;81.10;44.10;;;;;;;3.21;68.64;98815.39;252002;1133;115597;-72
2021/01/04 04:04:57;;;;;;;75.83;40.47;;;;;;;3.16;68.26;98808.57;251860;1134;115196;-72
2021/01/04 04:09:59;;;;;;;82.90;41.93;;;;;;;3.15;68.10;98806.86;251992;1135;114778;-72
2021/01/04 04:15:10;;;;;;;80.40;41.53;;;;;;;3.18;68.63;98804.13;251931;1134;115357;-72
2021/01/04 04:20:17;;;;;;;77.13;40.87;;;;;;;3.22;68.51;98803.95;251953;1132;115103;-72
2021/01/04 04:25:21;;;;;;;74.60;40.50;;;;;;;3.24;68.31;98814.43;251677;1134;114989;-72
2021/01/04 04:30:25;;;;;;;78.05;40.78;;;;;;;3.22;68.67;98816.25;251866;1135;114951;-73
2021/01/04 04:35:29;;;;;;;71.37;38.23;;;;;;;3.21;68.67;98812.77;251766;1133;115042;-72
2021/01/04 04:40:34;;;;;;;74.40;39.67;;;;;;;3.21;68.90;98807.50;251617;1134;115435;-73
2021/01/04 04:45:37;;;;;;;;;;;;;;;3.22;68.95;98806.58;251898;1134;116801;-72
2021/01/04 04:50:54;;;;;;;73.05;38.28;;;;;;;3.22;68.80;98797.84;251772;1132;102369;-72
2021/01/04 04:55:59;;;;;;;74.90;39.53;;;;;;;3.20;69.01;98797.05;251669;1132;115128;-72
2021/01/04 05:01:04;;;;;;;71.83;40.47;;;;;;;3.16;69.06;98793.68;251816;1135;115482;-72
2021/01/04 05:06:22;;;;;;;83.30;40.27;;;;;;;3.18;69.16;98791.83;251899;1133;114883;-72
2021/01/04 05:11:33;;;;;;;71.43;40.33;;;;;;;3.26;69.16;98788.92;251920;1133;115100;-72
2021/01/04 05:17:00;;;;;;;73.95;39.67;;;;;;;3.37;69.72;98785.92;252033;1136;115083;-72
2021/01/04 05:22:27;;;;;;;72.53;39.13;;;;;;;3.44;69.33;98780.37;252125;1134;114856;-72
2021/01/04 05:28:05;;;;;;;71.30;39.83;;;;;;;3.46;69.41;98794.30;251799;1133;114847;-73
2021/01/04 05:33:58;;;;;;;69.03;37.37;;;;;;;3.47;69.07;98793.41;251686;1135;116217;-72
2021/01/04 05:39:16;;;;;;;68.33;36.17;;;;;;;3.41;69.28;98777.00;251183;1137;115353;-72
2021/01/04 05:44:34;;;;;;;71.65;36.20;;;;;;;3.32;68.61;98768.52;251349;1134;114865;-72
2021/01/04 05:49:45;;;;;;;63.97;37.13;;;;;;;3.25;68.89;98777.55;251923;1135;115493;-74
2021/01/04 05:54:48;;;;;;;74.83;39.80;;;;;;;3.23;68.99;98783.80;251744;1133;114946;-72
2021/01/04 05:59:51;;;;;;;69.47;37.53;;;;;;;3.27;68.61;98791.52;251793;1135;115564;-73
2021/01/04 06:05:09;;;;;;;74.63;40.33;;;;;;;3.32;69.05;98788.70;251627;1132;115111;-73
2021/01/04 06:10:21;;;;;;;73.75;39.53;;;;;;;3.34;69.13;98791.30;251963;1132;114693;-74
2021/01/04 06:15:42;;;;;;;74.13;38.63;;;;;;;3.29;68.92;98804.59;251792;1134;115319;-74
2021/01/04 06:20:44;;;;;;;68.40;38.47;;;;;;;3.19;68.43;98796.17;251801;1133;115448;-74
2021/01/04 06:25:57;;;;;;;69.60;39.10;;;;;;;3.12;68.27;98804.34;251852;1132;115058;-74
2021/01/04 06:31:05;;;;;;;72.47;39.23;;;;;;;3.05;68.51;98803.70;251847;1134;114933;-73
2021/01/04 06:36:16;;;;;;;75.80;43.20;;;;;;;2.98;69.19;98821.45;251592;1134;114893;-73
2021/01/04 06:41:30;;;;;;;87.73;48.23;;;;;;;2.94;68.86;98829.51;251783;1132;115115;-73
2021/01/04 06:46:57;;;;;;;85.03;45.43;;;;;;;2.95;68.99;98834.70;252050;1133;114721;-73
2021/01/04 06:52:08;;;;;;;85.03;45.80;;;;;;;2.97;69.06;98832.89;251667;1132;115094;-73
2021/01/04 06:57:31;;;;;;;75.23;40.60;;;;;;;2.97;68.85;98851.29;250573;1134;115091;-73
2021/01/04 07:02:58;;;;;;;81.03;42.63;;;;;;;3.01;69.30;98860.78;250707;1134;114877;-78
2021/01/04 07:08:38;;;;;;;81.30;43.60;;;;;;;3.10;69.52;98864.87;251774;1133;115080;-73
2021/01/04 07:13:53;;;;;;;76.87;40.33;;;;;;;3.17;69.18;98862.89;251898;1133;114894;-73
2021/01/04 07:19:10;;;;;;;83.77;44.67;;;;;;;3.20;69.59;98854.91;252006;1133;114879;-73
2021/01/04 07:24:24;;;;;;;85.53;44.20;;;;;;;3.23;69.33;98847.77;251557;1134;115395;-73
2021/01/04 07:30:05;;;;;;;91.12;45.83;;;;;;;3.31;69.78;98845.70;251761;1132;115037;-73
2021/01/04 07:35:14;;;;;;;82.53;42.87;;;;;;;3.47;69.47;98855.69;251994;1132;114821;-73
2021/01/04 07:40:42;;;;;;;82.23;43.87;;;;;;;3.64;69.93;98855.08;251663;1133;114959;-73
2021/01/04 07:45:47;;;;;;;79.90;43.80;;;;;;;3.82;70.10;98864.91;251108;1133;115522;-73
2021/01/04 07:51:01;;;;;;;78.60;43.90;;;;;;;3.99;70.32;98869.53;251948;1133;115197;-73
2021/01/04 07:56:46;;;;;;;75.52;41.83;;;;;;;4.15;70.12;98875.94;251749;1133;114898;-75
2021/01/04 08:02:20;;;;;;;76.07;41.48;;;;;;;4.23;70.60;98888.80;251022;1132;114904;-73
2021/01/04 08:08:17;;;;;;;75.47;43.60;;;;;;;4.30;70.11;98881.52;251567;1134;114994;-73
2021/01/04 08:13:55;;;;;;;73.30;41.87;;;;;;;4.35;69.75;98863.74;250988;1135;115823;-73
2021/01/04 08:19:01;;;;;;;73.27;40.80;;;;;;;4.37;70.46;98875.94;252034;1134;114885;-73
2021/01/04 08:24:04;;;;;;;79.15;41.90;;;;;;;4.46;69.67;98875.59;251957;1134;114962;-73
2021/01/04 08:29:28;;;;;;;70.57;38.93;;;;;;;4.58;69.47;98884.77;251934;1135;114809;-74
2021/01/04 08:34:38;;;;;;;74.90;40.53;;;;;;;4.73;69.49;98885.94;251968;1132;114924;-73
2021/01/04 08:39:51;;;;;;;75.87;40.80;;;;;;;4.82;69.76;98874.14;251746;1133;115062;-74
2021/01/04 08:45:09;;;;;;;79.63;44.63;;;;;;;4.87;69.06;98875.68;251819;1133;115195;-75
2021/01/04 08:50:12;;;;;;;82.92;44.70;;;;;;;4.90;69.26;98872.06;251833;1132;115042;-73
2021/01/04 08:55:26;;;;;;;78.13;43.10;;;;;;;4.90;69.45;98874.70;251730;1132;115135;-74
2021/01/04 09:00:30;;;;;;;72.45;41.25;;;;;;;4.92;69.28;98865.78;251907;1132;114809;-73
2021/01/04 09:05:39;;;;;;;77.53;42.20;;;;;;;4.97;69.73;98866.46;251451;1132;115111;-73
2021/01/04 09:10:46;;;;;;;77.47;43.23;;;;;;;4.97;70.07;98861.19;251918;1132;115081;-76
2021/01/04 09:15:53;;;;;;;74.45;44.10;;;;;;;4.98;69.43;98852.34;251592;1135;114944;-76
2021/01/04 09:21:29;;;;;;;87.77;48.03;;;;;;;5.00;68.89;98840.90;251606;1133;115170;-77
2021/01/04 09:26:36;;;;;;;70.20;38.77;;;;;;;5.15;69.93;98843.71;252038;1132;114806;-77
2021/01/04 09:31:52;;;;;;;56.67;32.77;;;;;;;5.30;69.63;98834.30;251674;1134;115023;-76
2021/01/04 09:37:05;;;;;;;51.15;30.62;;;;;;;5.48;70.13;98844.95;251602;1132;115075;-76
2021/01/04 09:42:25;;;;;;;50.55;29.90;;;;;;;5.60;69.65;98842.60;251566;1135;114782;-76
2021/01/04 09:47:35;;;;;;;49.70;28.97;;;;;;;5.69;69.87;98849.27;251767;1133;114826;-76
2021/01/04 09:52:56;;;;;;;50.80;28.43;;;;;;;5.70;69.74;98853.61;251878;1134;114778;-76
2021/01/04 09:58:01;;;;;;;44.17;26.93;;;;;;;5.62;68.94;98866.31;251980;1135;114922;-76
2021/01/04 10:03:19;;;;;;;47.07;28.43;;;;;;;5.58;68.75;98840.98;251877;1133;114854;-76
2021/01/04 10:08:25;;;;;;;46.00;27.73;;;;;;;5.55;68.58;98843.76;251741;1134;115352;-73
2021/01/04 10:13:32;;;;;;;49.53;28.87;;;;;;;5.62;69.13;98831.99;251906;1134;116970;-74
2021/01/04 10:18:47;;;;;;;47.60;29.30;;;;;;;5.75;70.04;98840.22;251980;1135;115001;-74
2021/01/04 10:24:17;;;;;;;43.77;25.73;;;;;;;5.87;69.38;98842.28;251672;1134;115206;-75
2021/01/04 10:29:29;;;;;;;40.67;25.30;;;;;;;5.96;69.57;98827.84;251719;1135;115134;-75
2021/01/04 10:34:39;;;;;;;45.05;26.68;;;;;;;5.98;69.35;98818.92;251900;1132;114992;-75
2021/01/04 10:39:42;;;;;;;48.23;27.63;;;;;;;5.93;69.29;98816.48;251287;1134;115143;-74
2021/01/04 10:44:44;;;;;;;44.20;27.17;;;;;;;5.89;69.58;98809.60;251869;1134;114910;-74
2021/01/04 10:50:12;;;;;;;45.27;26.73;;;;;;;5.89;69.00;98812.24;251844;1135;114886;-74
2021/01/04 10:55:24;;;;;;;44.20;26.87;;;;;;;5.96;69.64;98819.92;251796;1132;115110;-74
2021/01/04 11:00:34;;;;;;;41.92;25.15;;;;;;;6.05;69.22;98820.34;252153;1134;114891;-74
2021/01/04 11:05:40;;;;;;;40.70;24.77;;;;;;;6.10;69.87;98810.40;251834;1132;115093;-74
2021/01/04 11:10:53;;;;;;;42.63;25.83;;;;;;;6.15;69.60;98800.48;251670;1134;115625;-75
2021/01/04 11:16:25;;;;;;;36.17;24.03;;;;;;;6.28;69.21;98799.88;251872;1134;115095;-74
2021/01/04 11:21:36;;;;;;;40.73;25.47;;;;;;;6.37;69.33;98784.44;251853;1133;115243;-75
2021/01/04 11:26:44;;;;;;;41.17;25.33;;;;;;;6.47;68.70;98786.63;251775;1132;115076;-74
2021/01/04 11:31:47;;;;;;;39.40;25.13;;;;;;;6.49;68.89;98787.39;251682;1132;115640;-74
2021/01/04 11:36:49;;;;;;;42.43;25.83;;;;;;;6.54;69.54;98777.46;251408;1135;115008;-74
2021/01/04 11:41:52;;;;;;;40.67;25.60;;;;;;;6.60;68.69;98785.09;251349;1133;115057;-80
2021/01/04 11:46:55;;;;;;;38.07;24.57;;;;;;;6.67;69.52;98778.56;251743;1135;115294;-75
2021/01/04 11:51:57;;;;;;;40.38;25.12;;;;;;;6.76;69.22;98782.52;251723;1132;115321;-74
2021/01/04 11:56:59;;;;;;;41.83;25.90;;;;;;;6.80;69.21;98768.23;251752;1134;115024;-74
2021/01/04 12:02:03;;;;;;;38.97;25.03;;;;;;;6.79;68.23;98763.85;251780;1135;114829;-74
2021/01/04 12:07:07;;;;;;;37.73;24.23;;;;;;;6.86;69.15;98763.48;251635;1135;115259;-74
2021/01/04 12:12:11;;;;;;;41.45;25.37;;;;;;;6.93;68.65;98766.67;251939;1134;115085;-74
2021/01/04 12:17:15;;;;;;;41.20;26.12;;;;;;;7.01;68.42;98767.11;251881;1135;115076;-74
2021/01/04 12:22:17;;;;;;;38.40;25.67;;;;;;;7.07;68.92;98758.02;251643;1132;115706;-74
2021/01/04 12:27:19;;;;;;;43.67;26.87;;;;;;;7.14;68.58;98759.40;251671;1133;115183;-74
2021/01/04 12:32:22;;;;;;;36.63;24.80;;;;;;;7.14;68.82;98769.13;251887;1134;114962;-74
2021/01/04 12:37:24;;;;;;;43.07;25.97;;;;;;;7.12;68.02;98777.13;251599;1132;116119;-74
2021/01/04 12:42:26;;;;;;;46.83;27.60;;;;;;;7.11;68.77;98776.28;251833;1135;115023;-74
2021/01/04 12:47:29;;;;;;;45.60;27.03;;;;;;;7.15;68.24;98782.27;252073;1133;114979;-74
2021/01/04 12:52:31;;;;;;;43.60;27.40;;;;;;;7.25;67.96;98780.85;251867;1134;114962;-77
2021/01/04 12:57:38;;;;;;;46.97;27.83;;;;;;;7.40;68.92;98780.97;249882;1133;115077;-75
2021/01/04 13:02:42;;;;;;;44.00;28.47;;;;;;;7.45;67.76;98773.66;251790;1132;115129;-76
2021/01/04 13:07:45;;;;;;;44.05;27.67;;;;;;;7.49;67.95;98773.39;251744;1132;114924;-75
2021/01/04 13:12:48;;;;;;;39.77;25.43;;;;;;;7.45;68.09;98765.70;251802;1132;115186;-74
2021/01/04 13:17:53;;;;;;;42.37;26.00;;;;;;;7.33;67.56;98765.41;251606;1133;115503;-75
2021/01/04 13:22:56;;;;;;;40.70;26.10;;;;;;;7.22;67.89;98754.55;251259;1135;114953;-75
2021/01/04 13:27:58;;;;;;;46.83;27.50;;;;;;;7.11;66.85;98741.88;251744;1132;114952;-75
2021/01/04 13:33:00;;;;;;;45.10;27.85;;;;;;;6.99;67.58;98741.66;251702;1132;115080;-75
2021/01/04 13:38:05;;;;;;;44.20;28.87;;;;;;;6.82;67.46;98738.09;251784;1134;115299;-75
2021/01/04 13:43:07;;;;;;;50.40;30.53;;;;;;;6.65;66.76;98756.62;251736;1133;115123;-75
2021/01/04 13:48:10;;;;;;;53.07;31.00;;;;;;;6.44;66.95;98758.56;252014;1133;115693;-75
2021/01/04 13:53:16;;;;;;;51.77;30.70;;;;;;;6.23;67.84;98763.12;250947;1132;115025;-75
2021/01/04 13:58:19;;;;;;;57.33;34.10;;;;;;;6.04;67.49;98760.50;247288;1134;115092;-75
2021/01/04 14:03:21;;;;;;;59.43;33.37;;;;;;;5.96;68.10;98756.53;252087;1135;114981;-75
2021/01/04 14:08:24;;;;;;;55.00;33.87;;;;;;;5.87;68.28;98758.63;251825;1133;115281;-74
2021/01/04 14:13:27;;;;;;;57.43;33.27;;;;;;;5.83;67.62;98751.78;251817;1133;115094;-75
2021/01/04 14:18:30;;;;;;;57.73;32.50;;;;;;;5.73;68.59;98747.02;251936;1134;115166;-75
2021/01/04 14:23:32;;;;;;;67.37;36.17;;;;;;;5.63;68.64;98755.36;251828;1132;115002;-75
2021/01/04 14:28:35;;;;;;;54.57;31.17;;;;;;;5.55;68.44;98760.15;251200;1133;115046;-75
2021/01/04 14:33:37;;;;;;;40.03;22.63;;;;;;;5.43;67.79;98756.30;251784;1133;115088;-75
2021/01/04 14:38:40;;;;;;;37.90;23.13;;;;;;;5.32;68.12;98765.62;251783;1133;114953;-74
2021/01/04 14:43:42;;;;;;;40.47;23.77;;;;;;;5.18;67.80;98768.88;251820;1135;115819;-75
2021/01/04 14:48:45;;;;;;;54.38;29.20;;;;;;;5.07;67.68;98764.08;251864;1132;115138;-75
2021/01/04 16:05:34;;;;;;;63.73;32.40;;;;;;;3.76;71.78;98734.39;251413;1132;104323;-70
2021/01/04 16:10:37;;;;;;;65.90;31.80;;;;;;;3.83;71.36;98729.74;251748;1134;114160;-70
2021/01/04 16:15:42;;;;;;;61.80;31.57;;;;;;;3.94;71.95;98729.31;251639;1135;114612;-72
2021/01/04 16:20:48;;;;;;;65.35;33.08;;;;;;;4.07;71.64;98734.95;251657;1134;114859;-72
2021/01/04 16:25:50;;;;;;;70.25;34.50;;;;;;;4.18;71.48;98745.92;251930;1132;114316;-71
2021/01/04 16:30:59;;;;;;;66.67;33.58;;;;;;;4.27;70.82;98750.80;251900;1134;114674;-72
2021/01/04 16:36:04;;;;;;;63.10;34.98;;;;;;;4.31;70.98;98744.47;251841;1132;114386;-72
2021/01/04 16:41:23;;;;;;;61.70;34.18;;;;;;;4.33;71.27;98750.55;251883;1132;114433;-72
2021/01/04 16:46:27;;;;;;;69.10;35.98;;;;;;;4.32;71.47;98738.30;252041;1134;115064;-73
2021/01/04 16:51:52;;;;;;;74.07;40.28;;;;;;;4.33;71.13;98744.42;251982;1134;114092;-74
2021/01/04 16:56:59;;;;;;;73.15;38.48;;;;;;;4.40;70.96;98740.61;251659;1132;114281;-72
2021/01/04 17:02:16;;;;;;;63.05;36.83;;;;;;;4.49;70.96;98743.72;251855;1133;115408;-72
2021/01/04 17:07:30;;;;;;;66.90;38.07;;;;;;;4.58;70.98;98738.97;252226;1132;114417;-74
2021/01/04 17:12:40;;;;;;;62.20;36.95;;;;;;;4.65;70.58;98740.42;251838;1132;114498;-73
2021/01/04 17:17:45;;;;;;;60.50;37.35;;;;;;;4.68;70.42;98740.29;251694;1134;114898;-73
2021/01/04 17:22:50;;;;;;;62.08;36.93;;;;;;;4.70;70.74;98735.83;251815;1132;114875;-73
2021/01/04 17:27:55;;;;;;;64.75;38.23;;;;;;;4.73;70.38;98736.55;251820;1132;114633;-74
2021/01/04 17:33:02;;;;;;;61.77;38.17;;;;;;;4.79;70.74;98734.55;252028;1132;115013;-73
2021/01/04 17:38:17;;;;;;;70.72;40.58;;;;;;;4.85;71.58;98731.66;251728;1134;114368;-73
2021/01/04 17:43:21;;;;;;;71.55;40.83;;;;;;;4.95;71.55;98740.88;252087;1133;114408;-73
2021/01/04 17:48:28;;;;;;;72.90;42.40;;;;;;;5.06;71.23;98743.91;252170;1132;115055;-73
2021/01/04 17:53:36;;;;;;;70.70;42.00;;;;;;;5.14;71.46;98738.29;251914;1133;114751;-73
2021/01/04 17:58:48;;;;;;;74.27;41.37;;;;;;;5.18;71.48;98742.50;251604;1134;114669;-73
2021/01/04 18:03:50;;;;;;;;;;;;;;;5.21;70.32;98747.64;249811;1132;114427;-73
2021/01/04 18:08:58;;;;;;;69.67;39.80;;;;;;;5.19;71.29;98749.47;249748;1132;104444;-73
2021/01/04 18:14:08;;;;;;;66.75;38.85;;;;;;;5.18;70.80;98739.86;250901;1134;114687;-73
2021/01/04 18:19:11;;;;;;;71.75;39.92;;;;;;;5.18;70.60;98750.41;252139;1133;114539;-72
2021/01/04 18:24:18;;;;;;;75.50;40.27;;;;;;;5.20;70.60;98759.13;251706;1132;115052;-73
2021/01/04 18:29:35;;;;;;;69.67;38.17;;;;;;;5.27;70.67;98772.90;251815;1132;114712;-73
2021/01/04 18:34:41;;;;;;;82.30;46.33;;;;;;;5.35;71.46;98760.20;251878;1132;114598;-72
2021/01/04 18:39:44;;;;;;;73.40;40.80;;;;;;;5.40;70.77;98759.08;251768;1132;114777;-72
2021/01/04 18:44:49;;;;;;;81.00;40.80;;;;;;;5.42;71.42;98751.93;252088;1132;114509;-73
2021/01/04 18:49:53;;;;;;;80.33;40.40;;;;;;;5.41;71.31;98742.31;251777;1132;114552;-70
2021/01/04 18:54:56;;;;;;;74.87;39.15;;;;;;;5.41;71.04;98752.02;251833;1132;114581;-70
2021/01/04 18:59:58;;;;;;;72.42;39.95;;;;;;;5.40;70.41;98750.28;251918;1132;114436;-71
2021/01/04 19:05:00;;;;;;;83.52;41.45;;;;;;;5.38;71.00;98736.32;251957;1133;114580;-70
2021/01/04 19:10:09;;;;;;;84.55;42.98;;;;;;;5.44;71.63;98743.96;251815;1132;114802;-70
2021/01/04 19:15:11;;;;;;;82.10;42.80;;;;;;;5.50;71.59;98741.02;251999;1132;114751;-71
2021/01/04 19:20:15;;;;;;;90.05;46.55;;;;;;;5.52;70.69;98741.81;252031;1133;115154;-70
2021/01/04 19:25:18;;;;;;;90.03;45.28;;;;;;;5.55;71.65;98735.54;251911;1132;114744;-70
2021/01/04 19:30:21;;;;;;;91.32;46.30;;;;;;;5.55;71.87;98725.84;251819;1135;114238;-70
2021/01/04 19:35:25;;;;;;;88.52;46.08;;;;;;;5.53;70.79;98727.68;252064;1133;114593;-70
2021/01/04 19:40:27;;;;;;;91.17;44.80;;;;;;;5.50;71.14;98722.54;252086;1132;114611;-71
2021/01/04 19:45:30;;;;;;;102.38;48.08;;;;;;;5.49;71.33;98715.56;252149;1133;116278;-70
2021/01/04 19:50:35;;;;;;;;;;;;;;;5.52;70.93;98710.14;252135;1132;115105;-68
2021/01/04 19:55:37;;;;;;;91.75;46.05;;;;;;;5.56;71.92;98705.57;252063;1133;102429;-70
2021/01/04 20:00:39;;;;;;;92.10;45.98;;;;;;;5.61;71.30;98700.95;252010;1133;114654;-70
2021/01/04 20:05:41;;;;;;;90.90;45.25;;;;;;;5.64;71.02;98703.45;252224;1132;114575;-69
2021/01/04 20:10:44;;;;;;;94.40;44.35;;;;;;;5.65;71.75;98699.87;252137;1132;114709;-69
2021/01/04 20:15:51;;;;;;;86.05;43.30;;;;;;;5.61;70.80;98700.95;252123;1135;114638;-71
2021/01/04 20:20:54;;;;;;;87.53;44.15;;;;;;;5.59;70.94;98708.07;252071;1133;114500;-70
2021/01/04 20:25:56;;;;;;;94.13;45.65;;;;;;;5.57;71.92;98702.88;252103;1132;114592;-70
2021/01/04 20:30:58;;;;;;;90.07;44.97;;;;;;;5.61;70.98;98715.00;251937;1133;114567;-72
2021/01/04 20:36:05;;;;;;;95.40;47.07;;;;;;;5.65;71.34;98707.78;251814;1134;114968;-64
2021/01/04 20:41:09;;;;;;;96.70;47.05;;;;;;;5.70;71.91;98703.13;251863;1132;114866;-64
2021/01/04 20:46:21;;;;;;;91.23;44.60;;;;;;;5.70;71.87;98700.48;250047;1134;115434;-64
2021/01/04 20:51:23;;;;;;;96.10;45.33;;;;;;;5.67;70.93;98705.91;251915;1132;114753;-64
2021/01/04 20:56:28;;;;;;;96.03;42.73;;;;;;;5.62;71.81;98706.14;251808;1132;114761;-64
2021/01/04 21:01:31;;;;;;;92.30;41.28;;;;;;;5.56;71.33;98701.14;251688;1132;114462;-64
2021/01/04 21:06:39;;;;;;;99.28;45.20;;;;;;;5.51;71.73;98694.39;251840;1132;114525;-64
2021/01/04 21:11:42;;;;;;;91.78;43.95;;;;;;;5.52;71.47;98691.66;252007;1132;114860;-64
2021/01/04 21:16:47;;;;;;;82.85;40.40;;;;;;;5.58;71.23;98682.61;252138;1132;114737;-62
2021/01/04 21:21:50;;;;;;;81.32;39.10;;;;;;;5.58;71.38;98670.27;251675;1133;114851;-63
2021/01/04 21:26:53;;;;;;;84.60;38.42;;;;;;;5.57;72.15;98660.64;251955;1134;114925;-63
2021/01/04 21:32:03;;;;;;;79.87;37.60;;;;;;;5.55;71.80;98661.64;251997;1132;114772;-63
2021/01/04 21:37:06;;;;;;;68.42;35.03;;;;;;;5.50;70.95;98646.00;251691;1132;114518;-64
2021/01/04 21:42:11;;;;;;;72.67;33.70;;;;;;;5.47;71.16;98654.09;251423;1132;114984;-64
2021/01/04 21:47:14;;;;;;;76.47;35.48;;;;;;;5.42;71.76;98643.73;251944;1132;114702;-64
2021/01/04 21:52:16;;;;;;;70.75;33.85;;;;;;;5.43;72.31;98640.19;252042;1134;115048;-63
2021/01/04 21:57:20;;;;;;;75.40;34.83;;;;;;;5.46;71.94;98641.80;250630;1134;114812;-66
2021/01/04 22:02:23;;;;;;;68.07;34.45;;;;;;;5.44;72.11;98639.26;251789;1132;114773;-69
2021/01/04 22:07:25;;;;;;;72.75;33.73;;;;;;;5.45;72.32;98638.32;252023;1132;114856;-67
2021/01/04 22:12:28;;;;;;;68.57;33.13;;;;;;;5.43;71.43;98640.19;252193;1132;114610;-66
2021/01/04 22:17:30;;;;;;;68.95;32.40;;;;;;;5.42;71.42;98634.97;251954;1132;114639;-65
2021/01/04 22:22:32;;;;;;;62.15;30.62;;;;;;;5.38;72.58;98636.91;251807;1132;114641;-66
2021/01/04 22:27:35;;;;;;;73.23;33.60;;;;;;;5.36;72.19;98637.89;251815;1134;114611;-66
2021/01/04 22:32:37;;;;;;;71.33;32.70;;;;;;;5.37;72.00;98632.56;252139;1134;114601;-67
2021/01/04 22:37:42;;;;;;;66.90;33.92;;;;;;;5.45;71.97;98629.55;252281;1134;114772;-67
2021/01/04 22:42:45;;;;;;;72.27;35.13;;;;;;;5.50;71.31;98622.25;252096;1134;115016;-67
2021/01/04 22:47:47;;;;;;;76.45;34.13;;;;;;;5.51;72.73;98618.70;252390;1135;115668;-67
2021/01/04 22:52:49;;;;;;;71.72;33.15;;;;;;;5.50;72.08;98606.42;252325;1132;114756;-68
2021/01/04 22:57:53;;;;;;;69.87;33.10;;;;;;;5.49;72.14;98603.87;252425;1134;116386;-68
2021/01/04 23:02:55;;;;;;;66.02;31.65;;;;;;;5.46;71.27;98600.44;252382;1134;114586;-70
2021/01/04 23:07:57;;;;;;;74.90;33.45;;;;;;;5.45;72.33;98595.25;252261;1133;115105;-70
2021/01/04 23:12:59;;;;;;;72.13;33.10;;;;;;;5.50;72.59;98595.02;252349;1133;116337;-70
2021/01/04 23:18:03;;;;;;;65.95;31.60;;;;;;;5.53;71.80;98595.72;252323;1132;114992;-69
2021/01/04 23:23:06;;;;;;;67.75;33.42;;;;;;;5.55;71.76;98585.10;252347;1133;115261;-69
2021/01/04 23:28:09;;;;;;;67.45;32.15;;;;;;;5.57;72.53;98589.38;252178;1136;114977;-69
2021/01/04 23:33:16;;;;;;;69.90;32.77;;;;;;;5.57;71.78;98583.22;252248;1135;114743;-69
2021/01/04 23:38:20;;;;;;;70.45;30.97;;;;;;;5.53;72.45;98569.33;252209;1134;114523;-65
2021/01/04 23:43:23;;;;;;;63.00;31.15;;;;;;;5.51;72.65;98568.56;252346;1135;115024;-66
2021/01/04 23:48:26;;;;;;;74.67;32.30;;;;;;;5.50;72.82;98564.20;252376;1135;114384;-66
2021/01/04 23:53:28;;;;;;;68.33;32.20;;;;;;;5.55;71.84;98554.28;252272;1141;114788;-66
2021/01/04 23:58:30;;;;;;;71.67;32.67;;;;;;;5.59;72.66;98547.91;252257;1135;114882;-67
